IBE3232 LEMD-EGLL
Flight info
| Callsign | IBE3232 |
|---|---|
| Flight time | N/A |
| Altitude | 34000 |
| Route | SIE N858 DGO N867 NENEM DCT DIDIG UP87 ROXOG |
| Aircraft | A343/H-SDE2E3FGHIJ4J5M1RWXY/LB1D1 |
Departure
| Time | 2026-05-06 14:54 |
|---|---|
| Airport | Adolfo Suárez Madrid–Barajas Airport (LEMD) |
Arrival
| Time | N/A |
|---|---|
| Airport | London Heathrow Airport (EGLL) |
| Time | Latitude | Longitude | Altitude | Speed | Heading |
|---|---|---|---|---|---|
| 2026-05-06 14:17 | 40.48931 | -3.56332 | 1968 ft | 0 kts | 269° |
| 2026-05-06 14:43 | 40.48931 | -3.56336 | 1995 ft | 2 kts | 269° |
| 2026-05-06 14:43 | 40.48930 | -3.56385 | 1975 ft | 8 kts | 268° |
| 2026-05-06 14:43 | 40.48903 | -3.56441 | 1974 ft | 9 kts | 205° |
| 2026-05-06 14:44 | 40.48867 | -3.56497 | 1974 ft | 9 kts | 252° |
| 2026-05-06 14:44 | 40.48862 | -3.56592 | 1975 ft | 12 kts | 270° |
| 2026-05-06 14:44 | 40.48862 | -3.56718 | 1978 ft | 16 kts | 269° |
| 2026-05-06 14:45 | 40.48859 | -3.57052 | 1984 ft | 16 kts | 270° |
| 2026-05-06 14:45 | 40.48875 | -3.57199 | 1991 ft | 15 kts | 308° |
| 2026-05-06 14:45 | 40.48985 | -3.57231 | 1987 ft | 19 kts | 352° |
| 2026-05-06 14:45 | 40.49080 | -3.57328 | 1989 ft | 0 kts | 315° |
| 2026-05-06 14:52 | 40.49081 | -3.57330 | 1989 ft | 1 kts | 315° |
| 2026-05-06 14:52 | 40.49092 | -3.57344 | 1993 ft | 4 kts | 315° |
| 2026-05-06 14:52 | 40.49116 | -3.57376 | 1993 ft | 6 kts | 315° |
| 2026-05-06 14:52 | 40.49152 | -3.57423 | 1990 ft | 9 kts | 315° |
| 2026-05-06 14:53 | 40.49205 | -3.57452 | 1991 ft | 9 kts | 358° |
| 2026-05-06 14:53 | 40.49340 | -3.57453 | 1990 ft | 38 kts | 359° |
| 2026-05-06 14:53 | 40.49867 | -3.57458 | 1989 ft | 114 kts | 359° |
| 2026-05-06 14:53 | 40.50883 | -3.57461 | 2075 ft | 170 kts | 359° |
| 2026-05-06 14:54 | 40.52092 | -3.57475 | 2815 ft | 175 kts | 359° |
| 2026-05-06 14:54 | 40.53345 | -3.57512 | 3553 ft | 188 kts | 358° |
| 2026-05-06 14:54 | 40.54706 | -3.57565 | 4224 ft | 205 kts | 358° |
| 2026-05-06 14:54 | 40.56191 | -3.57721 | 4888 ft | 221 kts | 343° |
| 2026-05-06 14:55 | 40.57432 | -3.58904 | 5823 ft | 226 kts | 308° |
| 2026-05-06 14:55 | 40.58387 | -3.60554 | 6955 ft | 228 kts | 307° |
| 2026-05-06 14:55 | 40.59410 | -3.62161 | 8041 ft | 230 kts | 312° |
| 2026-05-06 14:55 | 40.60531 | -3.63683 | 9131 ft | 233 kts | 315° |
| 2026-05-06 14:56 | 40.61726 | -3.65155 | 10184 ft | 237 kts | 317° |
| 2026-05-06 14:56 | 40.62968 | -3.66566 | 11095 ft | 242 kts | 323° |
| 2026-05-06 14:56 | 40.64493 | -3.67550 | 11971 ft | 251 kts | 348° |
| 2026-05-06 14:56 | 40.66312 | -3.67667 | 12503 ft | 275 kts | 4° |
| 2026-05-06 14:57 | 40.68310 | -3.67394 | 12932 ft | 301 kts | 7° |
| 2026-05-06 14:57 | 40.70468 | -3.67037 | 13363 ft | 324 kts | 7° |
| 2026-05-06 14:57 | 40.72782 | -3.66666 | 13761 ft | 346 kts | 7° |
| 2026-05-06 14:57 | 40.75237 | -3.66290 | 14162 ft | 365 kts | 6° |
| 2026-05-06 14:58 | 40.77802 | -3.65909 | 14824 ft | 374 kts | 6° |
| 2026-05-06 14:58 | 40.80410 | -3.65527 | 15615 ft | 380 kts | 6° |
| 2026-05-06 14:58 | 40.83052 | -3.65142 | 16477 ft | 384 kts | 5° |
| 2026-05-06 14:58 | 40.85728 | -3.64753 | 17345 ft | 388 kts | 5° |
| 2026-05-06 14:59 | 40.88422 | -3.64362 | 18213 ft | 392 kts | 5° |
| 2026-05-06 14:59 | 40.91157 | -3.63965 | 18906 ft | 397 kts | 5° |
| 2026-05-06 14:59 | 40.92284 | -3.63802 | 19198 ft | 399 kts | 4° |
| 2026-05-06 14:59 | 40.95059 | -3.63400 | 19894 ft | 403 kts | 4° |
| 2026-05-06 15:00 | 40.97873 | -3.62991 | 20589 ft | 408 kts | 4° |
| 2026-05-06 15:00 | 41.00711 | -3.62579 | 21263 ft | 413 kts | 4° |
| 2026-05-06 15:00 | 41.03583 | -3.62162 | 21960 ft | 417 kts | 3° |
| 2026-05-06 15:00 | 41.06487 | -3.61739 | 22609 ft | 422 kts | 3° |
| 2026-05-06 15:01 | 41.09421 | -3.61312 | 23317 ft | 424 kts | 3° |
| 2026-05-06 15:01 | 41.12360 | -3.60861 | 23931 ft | 428 kts | 5° |
| 2026-05-06 15:01 | 41.15307 | -3.60101 | 24437 ft | 435 kts | 12° |
| 2026-05-06 15:01 | 41.18207 | -3.58865 | 24938 ft | 441 kts | 17° |
| 2026-05-06 15:02 | 41.21089 | -3.57414 | 25450 ft | 445 kts | 18° |
| 2026-05-06 15:02 | 41.23931 | -3.55872 | 25939 ft | 449 kts | 19° |
| 2026-05-06 15:02 | 41.26826 | -3.54252 | 26421 ft | 453 kts | 20° |
| 2026-05-06 15:02 | 41.29743 | -3.52610 | 26902 ft | 456 kts | 20° |
| 2026-05-06 15:03 | 41.32676 | -3.50967 | 27430 ft | 458 kts | 20° |
| 2026-05-06 15:03 | 41.35629 | -3.49325 | 27905 ft | 461 kts | 19° |
| 2026-05-06 15:03 | 41.38606 | -3.47682 | 28346 ft | 465 kts | 19° |
| 2026-05-06 15:03 | 41.41604 | -3.46033 | 28763 ft | 468 kts | 19° |
| 2026-05-06 15:04 | 41.44625 | -3.44375 | 29192 ft | 471 kts | 19° |
| 2026-05-06 15:04 | 41.47668 | -3.42705 | 29580 ft | 475 kts | 19° |
| 2026-05-06 15:04 | 41.50739 | -3.41017 | 29973 ft | 478 kts | 19° |
| 2026-05-06 15:04 | 41.53781 | -3.39348 | 30381 ft | 479 kts | 19° |
| 2026-05-06 15:05 | 41.56874 | -3.37644 | 30741 ft | 481 kts | 19° |
| 2026-05-06 15:05 | 41.59985 | -3.35925 | 31049 ft | 484 kts | 19° |
| 2026-05-06 15:05 | 41.63109 | -3.34197 | 31413 ft | 486 kts | 19° |
| 2026-05-06 15:05 | 41.66221 | -3.32471 | 31873 ft | 485 kts | 19° |
| 2026-05-06 15:06 | 41.69332 | -3.30746 | 32330 ft | 484 kts | 19° |
| 2026-05-06 15:06 | 41.72444 | -3.29018 | 32788 ft | 483 kts | 19° |
| 2026-05-06 15:06 | 41.75542 | -3.27297 | 33256 ft | 482 kts | 19° |
| 2026-05-06 15:06 | 41.78639 | -3.25576 | 33707 ft | 481 kts | 19° |
| 2026-05-06 15:07 | 41.81747 | -3.23848 | 33952 ft | 485 kts | 19° |
| 2026-05-06 15:07 | 41.87965 | -3.20386 | 33954 ft | 482 kts | 19° |
| 2026-05-06 15:08 | 41.94274 | -3.17761 | 33956 ft | 474 kts | 5° |
| 2026-05-06 15:08 | 42.00765 | -3.17773 | 33959 ft | 463 kts | 347° |
| 2026-05-06 15:09 | 42.07048 | -3.19538 | 33970 ft | 460 kts | 342° |
| 2026-05-06 15:09 | 42.13242 | -3.21736 | 33968 ft | 460 kts | 341° |
| 2026-05-06 15:10 | 42.19428 | -3.23933 | 33989 ft | 459 kts | 341° |
| 2026-05-06 15:10 | 42.25627 | -3.26066 | 33980 ft | 459 kts | 342° |
| 2026-05-06 15:11 | 42.31825 | -3.28167 | 33988 ft | 459 kts | 342° |
| 2026-05-06 15:11 | 42.38021 | -3.30267 | 33992 ft | 459 kts | 342° |
| 2026-05-06 15:12 | 42.44196 | -3.32365 | 33987 ft | 457 kts | 342° |
| 2026-05-06 15:12 | 42.50364 | -3.34468 | 33993 ft | 457 kts | 342° |
| 2026-05-06 15:13 | 42.56502 | -3.36567 | 34006 ft | 457 kts | 342° |
| 2026-05-06 15:13 | 42.62664 | -3.38677 | 33993 ft | 456 kts | 342° |
| 2026-05-06 15:14 | 42.68822 | -3.40790 | 33999 ft | 456 kts | 342° |
| 2026-05-06 15:14 | 42.74972 | -3.42906 | 34006 ft | 456 kts | 342° |
| 2026-05-06 15:15 | 42.81125 | -3.45027 | 34010 ft | 457 kts | 342° |
| 2026-05-06 15:15 | 42.87290 | -3.47155 | 34008 ft | 457 kts | 342° |
| 2026-05-06 15:16 | 42.93453 | -3.49287 | 34012 ft | 457 kts | 342° |
| 2026-05-06 15:16 | 42.99618 | -3.51423 | 34018 ft | 457 kts | 342° |
| 2026-05-06 15:17 | 43.05773 | -3.53562 | 34020 ft | 456 kts | 342° |
| 2026-05-06 15:17 | 43.11925 | -3.55702 | 34020 ft | 456 kts | 342° |
| 2026-05-06 15:18 | 43.18071 | -3.57847 | 34034 ft | 456 kts | 343° |
| 2026-05-06 15:18 | 43.24201 | -3.59990 | 34027 ft | 454 kts | 343° |
| 2026-05-06 15:19 | 43.30316 | -3.62133 | 34031 ft | 454 kts | 343° |
| 2026-05-06 15:19 | 43.36430 | -3.64279 | 34024 ft | 454 kts | 343° |
| 2026-05-06 15:20 | 43.42504 | -3.66416 | 34036 ft | 453 kts | 343° |
| 2026-05-06 15:20 | 43.48615 | -3.68569 | 34031 ft | 453 kts | 343° |
| 2026-05-06 15:21 | 43.54720 | -3.70726 | 34022 ft | 452 kts | 343° |
| 2026-05-06 15:21 | 43.60820 | -3.72886 | 34027 ft | 453 kts | 343° |
| 2026-05-06 15:22 | 43.66926 | -3.75051 | 34025 ft | 453 kts | 343° |
| 2026-05-06 15:22 | 43.73031 | -3.77221 | 34023 ft | 453 kts | 343° |
| 2026-05-06 15:23 | 43.79132 | -3.79394 | 34019 ft | 453 kts | 343° |
| 2026-05-06 15:23 | 43.85243 | -3.81576 | 34021 ft | 453 kts | 343° |
| 2026-05-06 15:24 | 43.91358 | -3.83763 | 34013 ft | 453 kts | 343° |
| 2026-05-06 15:24 | 43.97471 | -3.85954 | 34022 ft | 453 kts | 343° |
| 2026-05-06 15:25 | 44.03544 | -3.88136 | 34014 ft | 453 kts | 343° |
| 2026-05-06 15:25 | 44.09648 | -3.90333 | 34015 ft | 453 kts | 343° |
| 2026-05-06 15:26 | 44.15749 | -3.92534 | 34012 ft | 453 kts | 343° |
| 2026-05-06 15:26 | 44.21847 | -3.94740 | 34012 ft | 452 kts | 343° |
| 2026-05-06 15:27 | 44.27942 | -3.96947 | 34012 ft | 452 kts | 344° |
| 2026-05-06 15:27 | 44.34194 | -3.98034 | 34012 ft | 456 kts | 359° |
| 2026-05-06 15:28 | 44.40524 | -3.97210 | 34012 ft | 458 kts | 6° |
| 2026-05-06 15:28 | 44.46814 | -3.95727 | 34012 ft | 458 kts | 8° |
| 2026-05-06 15:29 | 44.53089 | -3.94167 | 34013 ft | 458 kts | 8° |
| 2026-05-06 15:29 | 44.59368 | -3.92670 | 34012 ft | 457 kts | 7° |
| 2026-05-06 15:30 | 44.65604 | -3.91223 | 34012 ft | 457 kts | 7° |
| 2026-05-06 15:30 | 44.71873 | -3.89777 | 34012 ft | 457 kts | 7° |
| 2026-05-06 15:31 | 44.78148 | -3.88324 | 34012 ft | 457 kts | 7° |
| 2026-05-06 15:31 | 44.84422 | -3.86866 | 34012 ft | 457 kts | 7° |
| 2026-05-06 15:32 | 44.93831 | -3.84672 | 34018 ft | 456 kts | 7° |
| 2026-05-06 15:32 | 45.00055 | -3.83217 | 34012 ft | 456 kts | 7° |
| 2026-05-06 15:33 | 45.06324 | -3.81748 | 34008 ft | 457 kts | 7° |
| 2026-05-06 15:33 | 45.12612 | -3.80271 | 34009 ft | 457 kts | 7° |
| 2026-05-06 15:34 | 45.18886 | -3.78794 | 34010 ft | 456 kts | 8° |
| 2026-05-06 15:34 | 45.25142 | -3.77318 | 34007 ft | 456 kts | 8° |
| 2026-05-06 15:35 | 45.31397 | -3.75839 | 34005 ft | 455 kts | 8° |
| 2026-05-06 15:35 | 45.37651 | -3.74357 | 34009 ft | 455 kts | 8° |
| 2026-05-06 15:36 | 45.42831 | -3.73127 | 34009 ft | 454 kts | 8° |
| 2026-05-06 15:36 | 45.49070 | -3.71643 | 33999 ft | 454 kts | 8° |
| 2026-05-06 15:37 | 45.55302 | -3.70156 | 34005 ft | 454 kts | 8° |
| 2026-05-06 15:37 | 45.61536 | -3.68667 | 34002 ft | 454 kts | 8° |
| 2026-05-06 15:38 | 45.67725 | -3.67184 | 34002 ft | 454 kts | 8° |
| 2026-05-06 15:38 | 45.73957 | -3.65688 | 34005 ft | 454 kts | 8° |
| 2026-05-06 15:39 | 45.80187 | -3.64189 | 34004 ft | 454 kts | 8° |
| 2026-05-06 15:39 | 45.86425 | -3.62684 | 34003 ft | 454 kts | 8° |
| 2026-05-06 15:40 | 45.92655 | -3.61179 | 34001 ft | 454 kts | 8° |
| 2026-05-06 15:40 | 45.98893 | -3.59668 | 33995 ft | 455 kts | 8° |
| 2026-05-06 15:41 | 46.05148 | -3.58149 | 33994 ft | 455 kts | 8° |
| 2026-05-06 15:41 | 46.11365 | -3.56636 | 33997 ft | 454 kts | 8° |
| 2026-05-06 15:42 | 46.17584 | -3.55118 | 33993 ft | 453 kts | 8° |
| 2026-05-06 15:42 | 46.23803 | -3.53598 | 33992 ft | 452 kts | 8° |
| 2026-05-06 15:43 | 46.30013 | -3.52076 | 33993 ft | 453 kts | 8° |
| 2026-05-06 15:43 | 46.36228 | -3.50549 | 33990 ft | 454 kts | 8° |
| 2026-05-06 15:44 | 46.42456 | -3.49016 | 33991 ft | 454 kts | 8° |
| 2026-05-06 15:44 | 46.48644 | -3.47489 | 33991 ft | 454 kts | 8° |
| 2026-05-06 15:45 | 46.54873 | -3.45948 | 33992 ft | 455 kts | 8° |
| 2026-05-06 15:45 | 46.61130 | -3.44397 | 33989 ft | 456 kts | 8° |
| 2026-05-06 15:46 | 46.67398 | -3.42839 | 33990 ft | 456 kts | 8° |
| 2026-05-06 15:46 | 46.73622 | -3.41289 | 33987 ft | 456 kts | 8° |
| 2026-05-06 15:47 | 46.79877 | -3.39727 | 33986 ft | 456 kts | 8° |
| 2026-05-06 15:47 | 46.86135 | -3.38161 | 33986 ft | 456 kts | 8° |
| 2026-05-06 15:48 | 46.92406 | -3.36588 | 33993 ft | 456 kts | 8° |
| 2026-05-06 15:48 | 46.98677 | -3.35012 | 33985 ft | 459 kts | 8° |
| 2026-05-06 15:49 | 47.04973 | -3.33425 | 33982 ft | 459 kts | 8° |
| 2026-05-06 15:49 | 47.11228 | -3.31844 | 33979 ft | 459 kts | 8° |
| 2026-05-06 15:50 | 47.17529 | -3.30248 | 33978 ft | 460 kts | 8° |
| 2026-05-06 15:50 | 47.23816 | -3.28652 | 33981 ft | 457 kts | 8° |
| 2026-05-06 15:51 | 47.30074 | -3.27059 | 33966 ft | 456 kts | 8° |
| 2026-05-06 15:51 | 47.36333 | -3.25462 | 33976 ft | 456 kts | 8° |
| 2026-05-06 15:52 | 47.42608 | -3.23858 | 33965 ft | 458 kts | 8° |
| 2026-05-06 15:52 | 47.48855 | -3.22258 | 33966 ft | 458 kts | 8° |
| 2026-05-06 15:53 | 47.55139 | -3.20643 | 33963 ft | 458 kts | 8° |
| 2026-05-06 15:53 | 47.61425 | -3.19024 | 33967 ft | 460 kts | 8° |
| 2026-05-06 15:54 | 47.67730 | -3.17396 | 33960 ft | 460 kts | 8° |
| 2026-05-06 15:54 | 47.73992 | -3.15428 | 33961 ft | 461 kts | 17° |
| 2026-05-06 15:55 | 47.79907 | -3.11702 | 33962 ft | 463 kts | 24° |
| 2026-05-06 15:55 | 47.85708 | -3.07513 | 33960 ft | 464 kts | 25° |
| 2026-05-06 15:56 | 47.91486 | -3.03231 | 33962 ft | 464 kts | 25° |
| 2026-05-06 15:56 | 47.97273 | -2.98950 | 33960 ft | 464 kts | 25° |
| 2026-05-06 15:57 | 48.03027 | -2.94707 | 33962 ft | 463 kts | 25° |
| 2026-05-06 15:57 | 48.08803 | -2.90448 | 33956 ft | 463 kts | 25° |
| 2026-05-06 15:58 | 48.14581 | -2.86177 | 33960 ft | 463 kts | 25° |
| 2026-05-06 15:58 | 48.20363 | -2.81891 | 33962 ft | 463 kts | 25° |
| 2026-05-06 15:59 | 48.26138 | -2.77599 | 33960 ft | 464 kts | 25° |
| 2026-05-06 15:59 | 48.31924 | -2.73288 | 33960 ft | 464 kts | 25° |
| 2026-05-06 16:00 | 48.37670 | -2.68995 | 33963 ft | 464 kts | 25° |
| 2026-05-06 16:00 | 48.43451 | -2.64665 | 33969 ft | 464 kts | 25° |
| 2026-05-06 16:01 | 48.49226 | -2.60329 | 33965 ft | 464 kts | 25° |
| 2026-05-06 16:01 | 48.55002 | -2.55981 | 33966 ft | 463 kts | 25° |
| 2026-05-06 16:02 | 48.60770 | -2.51628 | 33967 ft | 463 kts | 25° |
| 2026-05-06 16:02 | 48.66543 | -2.47260 | 33965 ft | 464 kts | 25° |
| 2026-05-06 16:03 | 48.72317 | -2.42879 | 33968 ft | 464 kts | 25° |
| 2026-05-06 16:03 | 48.78054 | -2.38515 | 33969 ft | 464 kts | 25° |